Main page
Satellite images 15-day forecastsClimateMarine weather Cyclones Lightning AirportsFAQ Newsletter About
Weather : Europe Africa North America South America Asia Australia-Oceania Others
Languages Contact

Cologne, Germany

Flughafen Köln/Bonn

latitude: 50-52N, longitude: 007-10E, elevation: 91 m


METAR: EDDK 020350Z 13004KT 9999 MIFG NSC 10/09 Q1028 NOSIG
TAF: EDDK 012300Z 0200/0306 VRB03KT 9999 SCT040 PROB30 TEMPO 0202/0208 4000 BR

Time: 06:21 (04:21 UTC)

Current weather observation

The report was made 31 minutes ago, at 03:50 UTC  
Wind 04 kt from the Southeast
Temperature 10°C
Humidity 93%
Pressure 1028 hPa
Visibility 10 km or more
shallow fog

Change units

Forecast

The report was made 05 hours and 21 minutes ago, at 23:00 UTC  
Forecast valid from 02 at 00 UTC to 03 at 06 UTC
Wind 03 kt from variable directions
Visibility 10 km or more
Scattered clouds at a height of 4000 ft
Probability 30% :
Temporary
from 02 at 02 UTC to 02 at 08 UTC
Visibility 4000 m
mist
The information on this site is subject to a disclaimer
Weather : Europe Africa North America South America Asia Australia-Oceania Others
Satellite images 15-day forecastsClimateMarine weather Cyclones Lightning AirportsFAQ Languages Contact Newsletter About